HSSS

Khartoum International Airport

Khartoum, Sudan
TAF HSSS 170500Z 1706/1812 03010G20KT CAVOK TEMPO 1706/1709 6000 NSC
Issued Valid From Valid To
Nov-17 @ 05:00 UTC
(4 hours ago)
Nov-17 @ 06:00 UTC
(3 hours ago)
Nov-18 @ 12:00 UTC
(-1 days ago)
Nov-17 @ 06:00 to Nov-18 @ 12:00
TAF HSSS 170500Z 1706/1812 03010G20KT CAVOK
Wind Visibility Clouds Conditions
30° at 10 knots
 Gusting to 20 knots
10,000+ meters
  • No significant clouds
Temporary Nov-17 @ 06:00 to Nov-17 @ 09:00
TEMPO 1706/1709 6000 NSC
Visibility Clouds
6,003 meters
  • No significant clouds
TAF HSSS 170500Z 1706/1812 03010G20KT CAVOK TEMPO 1706/1709 6000 NSC
Issued Nov-17 @ 05:00 UTC
(4 hours ago)
Valid From Nov-17 @ 06:00 UTC
(3 hours ago)
Valid To Nov-18 @ 12:00 UTC
(-1 days ago)
Nov-17 @ 06:00 - Nov-18 @ 12:00
Wind Visibility
30° at 10 knots
 Gusting to 20 knots
10,000+ meters
Clouds
  • No significant clouds
Conditions
Temporary Nov-17 @ 06:00 - Nov-17 @ 09:00
Clouds
  • No significant clouds